createdAt,value
2023-03-08T00:01:30.080Z,6.20
2023-03-08T00:04:00.078Z,6.20
2023-03-08T00:06:28.974Z,6.20
2023-03-08T00:08:58.328Z,6.20
2023-03-08T00:11:27.502Z,6.20
2023-03-08T00:13:56.374Z,6.20
2023-03-08T00:16:25.383Z,6.20
2023-03-08T00:18:53.706Z,6.10
2023-03-08T00:21:23.374Z,6.50
2023-03-08T00:23:54.215Z,6.10
2023-03-08T00:26:22.580Z,6.10
2023-03-08T00:28:50.946Z,6.10
2023-03-08T00:31:19.422Z,6.30
2023-03-08T00:33:47.806Z,6.10
2023-03-08T00:36:19.352Z,6.20
2023-03-08T00:38:51.187Z,6.10
2023-03-08T00:41:19.856Z,6.10
2023-03-08T00:43:48.289Z,6.10
2023-03-08T00:46:17.136Z,6.00
2023-03-08T00:48:46.696Z,6.00
2023-03-08T00:51:19.386Z,6.00
2023-03-08T00:53:50.689Z,6.10
2023-03-08T00:56:19.581Z,6.00
2023-03-08T00:58:48.028Z,6.00
2023-03-08T01:01:19.410Z,6.00
2023-03-08T01:03:50.355Z,6.10
2023-03-08T01:06:18.845Z,6.10
2023-03-08T01:08:47.268Z,6.00
2023-03-08T01:11:21.305Z,6.10
2023-03-08T01:13:50.493Z,6.10
2023-03-08T01:16:22.660Z,6.40
2023-03-08T01:18:53.617Z,6.10
2023-03-08T01:21:23.248Z,6.10
2023-03-08T01:23:52.159Z,6.20
2023-03-08T01:26:24.401Z,6.20
2023-03-08T01:28:57.497Z,6.20
2023-03-08T01:31:28.704Z,6.20
2023-03-08T01:33:58.901Z,6.20
2023-03-08T01:36:29.324Z,6.20
2023-03-08T01:38:58.410Z,6.20
2023-03-08T01:41:30.577Z,6.20
2023-03-08T01:43:59.173Z,6.40
2023-03-08T01:46:30.194Z,6.10
2023-03-08T01:49:09.186Z,6.10
2023-03-08T01:51:41.246Z,6.10
2023-03-08T01:54:14.315Z,6.10
2023-03-08T01:56:46.233Z,6.10
2023-03-08T01:59:15.610Z,6.00
2023-03-08T02:01:44.644Z,6.10
2023-03-08T02:04:13.431Z,6.20
2023-03-08T02:06:43.292Z,6.00
2023-03-08T02:09:12.005Z,6.00
2023-03-08T02:11:43.485Z,6.00
2023-03-08T02:14:12.192Z,6.00
2023-03-08T02:16:44.368Z,6.00
2023-03-08T02:19:18.551Z,6.20
2023-03-08T02:21:47.801Z,6.00
2023-03-08T02:24:23.582Z,6.10
2023-03-08T02:27:02.172Z,6.00
2023-03-08T02:29:30.710Z,6.10
2023-03-08T02:31:59.021Z,6.20
2023-03-08T02:34:27.365Z,6.00
2023-03-08T02:36:55.740Z,6.30
2023-03-08T02:39:25.498Z,6.00
2023-03-08T02:41:56.724Z,6.00
2023-03-08T02:44:25.338Z,6.10
2023-03-08T02:46:54.810Z,6.10
2023-03-08T02:49:23.150Z,6.10
2023-03-08T02:51:53.104Z,6.10
2023-03-08T02:54:22.689Z,6.10
2023-03-08T02:56:52.345Z,6.10
2023-03-08T02:59:22.780Z,6.10
2023-03-08T03:01:52.509Z,6.10
2023-03-08T03:04:20.862Z,6.10
2023-03-08T03:06:49.194Z,6.10
2023-03-08T03:09:17.795Z,6.10
2023-03-08T03:11:46.491Z,6.10
2023-03-08T03:14:16.204Z,6.10
2023-03-08T03:16:46.296Z,6.10
2023-03-08T03:19:14.840Z,6.10
2023-03-08T03:21:43.444Z,6.10
2023-03-08T03:24:11.959Z,6.10
2023-03-08T03:26:52.463Z,6.20
2023-03-08T03:29:23.843Z,6.20
2023-03-08T03:32:00.839Z,6.10
2023-03-08T03:34:29.870Z,6.10
2023-03-08T03:36:58.275Z,6.30
2023-03-08T03:39:27.195Z,6.10
2023-03-08T03:41:55.568Z,6.20
2023-03-08T03:44:25.329Z,6.20
2023-03-08T03:46:53.683Z,6.20
2023-03-08T03:49:26.451Z,6.20
2023-03-08T03:51:54.757Z,6.20
2023-03-08T03:54:27.671Z,6.20
2023-03-08T03:57:00.378Z,6.20
2023-03-08T03:59:35.082Z,6.20
2023-03-08T04:02:04.250Z,6.20
2023-03-08T04:04:38.211Z,6.20
2023-03-08T04:07:06.656Z,6.30
2023-03-08T04:09:40.718Z,6.20
2023-03-08T04:12:16.074Z,6.20
2023-03-08T04:14:46.815Z,6.20
2023-03-08T04:17:15.952Z,6.30
2023-03-08T04:19:50.378Z,6.20
2023-03-08T04:22:19.922Z,6.20
2023-03-08T04:25:23.752Z,6.20
2023-03-08T04:27:57.769Z,6.20
2023-03-08T04:30:29.854Z,6.20
2023-03-08T04:32:59.664Z,6.20
2023-03-08T04:35:35.721Z,6.20
2023-03-08T04:38:05.084Z,6.20
2023-03-08T04:40:53.817Z,6.10
2023-03-08T04:43:23.158Z,6.20
2023-03-08T04:45:53.656Z,6.10
2023-03-08T04:48:22.112Z,6.20
2023-03-08T04:50:55.323Z,6.10
2023-03-08T04:53:25.700Z,6.10
2023-03-08T04:55:55.480Z,6.10
2023-03-08T04:58:24.556Z,6.10
2023-03-08T05:00:54.290Z,6.10
2023-03-08T05:03:22.880Z,6.10
2023-03-08T05:05:53.941Z,6.10
2023-03-08T05:08:23.552Z,6.10
2023-03-08T05:11:00.796Z,6.10
2023-03-08T05:13:35.296Z,6.10
2023-03-08T05:16:07.571Z,6.10
2023-03-08T05:18:36.223Z,6.10
2023-03-08T05:21:07.313Z,6.10
2023-03-08T05:23:36.947Z,6.10
2023-03-08T05:26:08.025Z,6.10
2023-03-08T05:28:38.149Z,6.10
2023-03-08T05:31:11.609Z,6.10
2023-03-08T05:33:41.293Z,6.10
2023-03-08T05:36:11.924Z,6.10
2023-03-08T05:38:40.675Z,6.00
2023-03-08T05:41:15.477Z,6.00
2023-03-08T05:43:48.447Z,6.30
2023-03-08T05:46:20.623Z,6.10
2023-03-08T05:48:50.249Z,6.00
2023-03-08T05:51:21.149Z,6.00
2023-03-08T05:53:49.612Z,6.00
2023-03-08T05:56:21.391Z,6.00
2023-03-08T05:58:56.508Z,6.00
2023-03-08T06:01:30.284Z,6.00
2023-03-08T06:04:07.404Z,6.00
2023-03-08T06:06:39.235Z,5.90
2023-03-08T06:09:08.084Z,5.90
2023-03-08T06:11:40.486Z,5.90
2023-03-08T06:14:09.040Z,6.10
2023-03-08T06:16:39.433Z,5.90
2023-03-08T06:19:08.263Z,5.90
2023-03-08T06:21:38.710Z,6.00
2023-03-08T06:24:07.788Z,6.00
2023-03-08T06:26:37.014Z,6.00
2023-03-08T06:29:05.620Z,6.00
2023-03-08T06:31:34.898Z,6.00
2023-03-08T06:34:07.095Z,6.30
2023-03-08T06:36:35.915Z,6.00
2023-03-08T06:39:04.700Z,6.00
2023-03-08T06:41:33.463Z,6.00
2023-03-08T06:44:03.892Z,6.00
2023-03-08T06:46:32.271Z,6.00
2023-03-08T06:49:03.221Z,6.20
2023-03-08T06:51:33.090Z,6.00
2023-03-08T06:54:01.512Z,6.00
2023-03-08T06:56:30.265Z,6.00
2023-03-08T06:58:58.560Z,6.10
2023-03-08T07:01:27.057Z,6.20
2023-03-08T07:03:55.552Z,6.10
2023-03-08T07:06:24.144Z,6.10
2023-03-08T07:08:54.257Z,6.10
2023-03-08T07:11:22.546Z,6.20
2023-03-08T07:13:50.833Z,6.20
2023-03-08T07:16:19.575Z,6.20
2023-03-08T07:18:47.805Z,6.30
2023-03-08T07:21:16.075Z,6.30
2023-03-08T07:23:44.443Z,6.30
2023-03-08T07:26:14.129Z,6.30
2023-03-08T07:28:42.443Z,6.40
2023-03-08T07:31:13.139Z,6.40
2023-03-08T07:33:41.439Z,6.40
2023-03-08T07:36:10.004Z,6.50
2023-03-08T07:38:38.358Z,6.50
2023-03-08T07:41:07.040Z,6.50
2023-03-08T07:43:36.648Z,6.60
2023-03-08T07:46:10.778Z,6.60
2023-03-08T07:48:39.085Z,6.70
2023-03-08T07:51:10.360Z,6.70
2023-03-08T07:53:39.306Z,6.80
2023-03-08T07:56:08.747Z,6.80
2023-03-08T07:58:38.696Z,6.90
2023-03-08T08:01:10.701Z,6.90
2023-03-08T08:03:39.496Z,7.00
2023-03-08T08:06:09.026Z,7.10
2023-03-08T08:08:37.353Z,7.10
2023-03-08T08:11:13.210Z,7.10
2023-03-08T08:13:43.359Z,7.20
2023-03-08T08:16:12.071Z,7.30
2023-03-08T08:18:40.634Z,7.30
2023-03-08T08:21:11.208Z,7.30
2023-03-08T08:23:40.776Z,7.30
2023-03-08T08:26:12.560Z,7.40
2023-03-08T08:28:44.791Z,7.50
2023-03-08T08:31:17.000Z,7.50
2023-03-08T08:33:45.383Z,7.60
2023-03-08T08:36:17.276Z,7.60
2023-03-08T08:38:46.183Z,7.60
2023-03-08T08:41:16.762Z,7.70
2023-03-08T08:43:47.449Z,7.70
2023-03-08T08:46:17.344Z,7.80
2023-03-08T08:48:45.658Z,7.80
2023-03-08T08:51:15.151Z,8.10
2023-03-08T08:53:44.295Z,7.90
2023-03-08T08:56:26.170Z,8.00
2023-03-08T08:58:58.044Z,8.00
2023-03-08T09:01:30.098Z,8.00
2023-03-08T09:03:59.404Z,8.10
2023-03-08T09:06:29.703Z,8.10
2023-03-08T09:08:59.813Z,8.10
2023-03-08T09:11:29.357Z,8.10
2023-03-08T09:13:59.143Z,8.20
2023-03-08T09:16:30.223Z,8.30
2023-03-08T09:19:00.157Z,8.20
2023-03-08T09:21:30.186Z,8.40
2023-03-08T09:24:02.922Z,8.30
2023-03-08T09:26:32.265Z,8.30
2023-03-08T09:29:05.404Z,8.30
2023-03-08T09:31:35.283Z,8.30
2023-03-08T09:34:08.850Z,8.30
2023-03-08T09:36:39.519Z,8.50
2023-03-08T09:39:08.955Z,8.40
2023-03-08T09:41:54.481Z,8.40
2023-03-08T09:44:58.797Z,8.40
2023-03-08T09:47:35.809Z,8.50
2023-03-08T09:50:30.787Z,8.60
2023-03-08T09:53:10.550Z,8.40
2023-03-08T09:55:49.606Z,8.40
2023-03-08T09:58:29.660Z,8.40
2023-03-08T10:01:07.373Z,8.40
2023-03-08T10:04:03.781Z,8.50
2023-03-08T10:06:37.009Z,8.40
2023-03-08T10:09:21.654Z,8.40
2023-03-08T10:11:55.704Z,8.40
2023-03-08T10:14:31.003Z,8.30
2023-03-08T10:17:05.787Z,8.60
2023-03-08T10:19:41.266Z,8.30
2023-03-08T10:22:16.744Z,8.30
2023-03-08T10:24:53.111Z,8.60
2023-03-08T10:27:25.600Z,8.40
2023-03-08T10:29:57.242Z,8.30
2023-03-08T10:32:28.450Z,8.30
2023-03-08T10:35:05.675Z,8.50
2023-03-08T10:37:35.151Z,8.30
2023-03-08T10:40:09.825Z,8.30
2023-03-08T10:42:38.685Z,8.30
2023-03-08T10:45:16.920Z,8.30
2023-03-08T10:47:56.867Z,8.40
2023-03-08T10:50:27.551Z,8.30
2023-03-08T10:52:56.185Z,8.50
2023-03-08T10:55:28.307Z,8.50
2023-03-08T10:57:59.739Z,8.30
2023-03-08T11:00:37.067Z,8.30
2023-03-08T11:03:20.948Z,8.40
2023-03-08T11:05:57.818Z,8.30
2023-03-08T11:08:30.368Z,8.30
2023-03-08T11:11:05.346Z,8.20
2023-03-08T11:13:36.612Z,8.20
2023-03-08T11:16:39.259Z,8.20
2023-03-08T11:19:23.781Z,8.20
2023-03-08T11:22:04.965Z,8.20
2023-03-08T11:24:53.211Z,8.30
2023-03-08T11:27:39.196Z,8.20
2023-03-08T11:30:22.277Z,8.10
2023-03-08T11:33:19.503Z,8.20
2023-03-08T11:35:57.450Z,8.20
2023-03-08T11:38:28.533Z,8.10
2023-03-08T11:41:08.082Z,8.10
2023-03-08T11:43:51.862Z,8.10
2023-03-08T11:46:25.373Z,8.30
2023-03-08T11:49:18.308Z,8.10
2023-03-08T11:51:56.627Z,8.20
2023-03-08T11:54:56.959Z,8.10
2023-03-08T11:57:30.060Z,8.20
2023-03-08T12:00:10.338Z,8.10
2023-03-08T12:02:46.735Z,8.10
2023-03-08T12:05:27.504Z,8.10
2023-03-08T12:08:02.460Z,8.10
2023-03-08T12:10:38.353Z,8.10
2023-03-08T12:13:16.884Z,8.10
2023-03-08T12:15:52.180Z,8.20
2023-03-08T12:18:29.977Z,8.20
2023-03-08T12:21:09.818Z,8.10
2023-03-08T12:23:47.738Z,8.40
2023-03-08T12:26:22.613Z,8.10
2023-03-08T12:28:55.900Z,8.10
2023-03-08T12:31:29.922Z,8.10
2023-03-08T12:34:00.210Z,8.20
2023-03-08T12:36:39.647Z,8.10
2023-03-08T12:39:26.527Z,8.10
2023-03-08T12:42:01.083Z,8.10
2023-03-08T12:44:31.737Z,8.10
2023-03-08T12:47:04.331Z,8.10
2023-03-08T12:49:36.501Z,8.10
2023-03-08T12:52:07.856Z,8.00
2023-03-08T12:54:37.769Z,8.00
2023-03-08T12:57:20.611Z,8.10
2023-03-08T12:59:49.242Z,8.10
2023-03-08T13:02:30.700Z,8.10
2023-03-08T13:05:20.171Z,8.10
2023-03-08T13:08:16.627Z,8.10
2023-03-08T13:11:02.119Z,8.20
2023-03-08T13:13:41.350Z,8.10
2023-03-08T13:16:23.975Z,8.10
2023-03-08T13:19:03.285Z,8.10
2023-03-08T13:21:35.680Z,8.10
2023-03-08T13:24:14.624Z,8.40
2023-03-08T13:27:10.794Z,8.10
2023-03-08T13:29:39.323Z,8.20
2023-03-08T13:32:14.316Z,8.10
2023-03-08T13:34:45.536Z,8.10
2023-03-08T13:37:23.122Z,8.10
2023-03-08T13:39:55.746Z,8.40
2023-03-08T13:42:27.310Z,8.10
2023-03-08T13:45:09.077Z,8.10
2023-03-08T13:47:40.963Z,8.10
2023-03-08T13:50:19.247Z,8.20
2023-03-08T13:52:48.084Z,8.20
2023-03-08T13:55:22.866Z,8.20
2023-03-08T13:57:55.429Z,8.20
2023-03-08T14:00:29.750Z,8.20
2023-03-08T14:02:59.125Z,8.20
2023-03-08T14:05:30.144Z,8.20
2023-03-08T14:08:01.846Z,8.30
2023-03-08T14:10:40.795Z,8.50
2023-03-08T14:13:21.012Z,8.20
2023-03-08T14:15:53.073Z,8.40
2023-03-08T14:18:25.163Z,8.30
2023-03-08T14:21:07.327Z,8.30
2023-03-08T14:23:42.052Z,8.30
2023-03-08T14:26:27.271Z,8.30
2023-03-08T14:29:22.155Z,8.30
2023-03-08T14:31:57.184Z,8.30
2023-03-08T14:34:33.749Z,8.30
2023-03-08T14:37:07.899Z,8.30
2023-03-08T14:39:39.148Z,8.30
2023-03-08T14:42:18.031Z,8.50
2023-03-08T14:44:54.599Z,8.30
2023-03-08T14:47:25.856Z,8.30
2023-03-08T14:50:01.139Z,8.30
2023-03-08T14:52:30.418Z,8.40
2023-03-08T14:54:58.934Z,8.40
2023-03-08T14:57:29.300Z,8.40
2023-03-08T15:00:14.209Z,8.40
2023-03-08T15:02:43.313Z,8.40
2023-03-08T15:05:25.505Z,8.60
2023-03-08T15:07:59.355Z,8.30
2023-03-08T15:10:32.503Z,8.30
2023-03-08T15:13:01.800Z,8.30
2023-03-08T15:15:31.482Z,8.30
2023-03-08T15:17:59.756Z,8.60
2023-03-08T15:20:28.215Z,8.30
2023-03-08T15:23:01.238Z,8.20
2023-03-08T15:25:31.812Z,8.20
2023-03-08T15:28:00.157Z,8.20
2023-03-08T15:30:32.179Z,8.20
2023-03-08T15:33:02.185Z,8.20
2023-03-08T15:35:31.493Z,8.20
2023-03-08T15:37:59.895Z,8.20
2023-03-08T15:40:31.758Z,8.20
2023-03-08T15:43:01.063Z,8.20
2023-03-08T15:45:29.710Z,8.40
2023-03-08T15:48:01.747Z,8.30
2023-03-08T15:50:31.428Z,8.30
2023-03-08T15:53:00.791Z,8.40
2023-03-08T15:55:31.673Z,8.20
2023-03-08T15:58:00.158Z,8.30
2023-03-08T16:00:29.143Z,8.20
2023-03-08T16:02:59.148Z,8.20
2023-03-08T16:05:29.115Z,8.50
2023-03-08T16:07:59.510Z,8.30
2023-03-08T16:10:30.065Z,8.50
2023-03-08T16:12:58.593Z,8.20
2023-03-08T16:15:27.086Z,8.20
2023-03-08T16:17:55.459Z,8.20
2023-03-08T16:20:26.027Z,8.10
2023-03-08T16:22:55.612Z,8.20
2023-03-08T16:25:24.061Z,8.20
2023-03-08T16:27:53.149Z,8.10
2023-03-08T16:30:21.911Z,8.10
2023-03-08T16:32:53.132Z,8.10
2023-03-08T16:35:21.845Z,8.10
2023-03-08T16:37:53.885Z,8.20
2023-03-08T16:40:22.329Z,8.20
2023-03-08T16:42:52.475Z,8.10
2023-03-08T16:45:21.043Z,8.10
2023-03-08T16:47:49.402Z,8.20
2023-03-08T16:50:18.486Z,8.10
2023-03-08T16:52:47.150Z,8.20
2023-03-08T16:55:17.056Z,8.20
2023-03-08T16:57:45.328Z,8.10
2023-03-08T17:00:15.649Z,8.10
2023-03-08T17:02:45.481Z,8.10
2023-03-08T17:05:14.026Z,8.10
2023-03-08T17:07:42.302Z,9.10
2023-03-08T17:10:12.377Z,8.10
2023-03-08T17:12:42.147Z,8.10
2023-03-08T17:15:11.964Z,8.10
2023-03-08T17:17:40.465Z,8.10
2023-03-08T17:20:11.204Z,8.20
2023-03-08T17:22:39.616Z,8.10
2023-03-08T17:25:09.650Z,8.10
2023-03-08T17:27:37.965Z,8.10
2023-03-08T17:30:14.123Z,8.20
2023-03-08T17:32:42.454Z,8.10
2023-03-08T17:35:11.379Z,8.10
2023-03-08T17:37:41.650Z,8.10
2023-03-08T17:40:13.270Z,8.10
2023-03-08T17:42:42.000Z,8.10
2023-03-08T17:45:12.854Z,8.20
2023-03-08T17:47:41.558Z,8.10
2023-03-08T17:50:13.025Z,8.10
2023-03-08T17:52:42.149Z,8.10
2023-03-08T17:55:12.022Z,8.10
2023-03-08T17:57:40.419Z,8.10
2023-03-08T18:00:12.677Z,8.30
2023-03-08T18:02:41.131Z,8.00
2023-03-08T18:05:11.091Z,8.00
2023-03-08T18:07:41.635Z,8.10
2023-03-08T18:10:12.825Z,8.00
2023-03-08T18:12:41.132Z,8.00
2023-03-08T18:15:13.264Z,8.10
2023-03-08T18:17:41.642Z,8.00
2023-03-08T18:20:12.431Z,8.00
2023-03-08T18:22:41.830Z,8.00
2023-03-08T18:25:11.204Z,8.20
2023-03-08T18:27:40.320Z,8.00
2023-03-08T18:30:12.296Z,8.00
2023-03-08T18:32:40.927Z,8.00
2023-03-08T18:35:10.028Z,8.20
2023-03-08T18:37:38.316Z,8.00
2023-03-08T18:40:11.897Z,8.30
2023-03-08T18:42:40.293Z,8.00
2023-03-08T18:45:12.021Z,8.20
2023-03-08T18:47:40.552Z,8.00
2023-03-08T18:50:11.049Z,8.20
2023-03-08T18:52:39.356Z,8.00
2023-03-08T18:55:09.788Z,8.00
2023-03-08T18:57:39.172Z,8.00
2023-03-08T19:00:11.939Z,8.00
2023-03-08T19:02:41.833Z,8.00
2023-03-08T19:05:11.090Z,7.90
2023-03-08T19:07:41.064Z,8.00
2023-03-08T19:10:14.728Z,7.90
2023-03-08T19:12:43.851Z,7.90
2023-03-08T19:15:12.752Z,8.00
2023-03-08T19:17:42.418Z,8.00
2023-03-08T19:20:12.757Z,8.00
2023-03-08T19:22:41.187Z,8.00
2023-03-08T19:25:10.280Z,7.90
2023-03-08T19:27:38.721Z,7.90
2023-03-08T19:30:08.636Z,8.10
2023-03-08T19:32:37.033Z,7.90
2023-03-08T19:35:07.938Z,7.90
2023-03-08T19:37:36.739Z,8.00
2023-03-08T19:40:09.369Z,7.90
2023-03-08T19:42:37.770Z,8.00
2023-03-08T19:45:07.458Z,7.90
2023-03-08T19:47:35.790Z,7.90
2023-03-08T19:50:04.264Z,7.90
2023-03-08T19:52:33.983Z,7.90
2023-03-08T19:55:03.585Z,7.90
2023-03-08T19:57:31.970Z,7.90
2023-03-08T20:00:01.323Z,7.90
2023-03-08T20:02:42.398Z,8.00
2023-03-08T20:05:11.133Z,7.90
2023-03-08T20:07:40.784Z,7.80
2023-03-08T20:10:17.268Z,7.90
2023-03-08T20:12:47.166Z,7.90
2023-03-08T20:15:15.749Z,7.80
2023-03-08T20:17:44.052Z,7.90
2023-03-08T20:20:14.110Z,7.80
2023-03-08T20:22:44.006Z,7.90
2023-03-08T20:25:12.970Z,7.80
2023-03-08T20:27:42.514Z,7.90
2023-03-08T20:30:13.452Z,7.80
2023-03-08T20:32:41.916Z,7.80
2023-03-08T20:35:14.989Z,7.80
2023-03-08T20:37:44.766Z,7.80
2023-03-08T20:40:16.660Z,7.80
2023-03-08T20:42:45.338Z,7.80
2023-03-08T20:45:14.259Z,7.90
2023-03-08T20:47:42.704Z,7.80
2023-03-08T20:50:12.926Z,8.00
2023-03-08T20:52:41.439Z,7.80
2023-03-08T20:55:11.864Z,7.90
2023-03-08T20:57:40.487Z,7.80
2023-03-08T21:00:11.136Z,7.80
2023-03-08T21:02:40.629Z,7.80
2023-03-08T21:05:10.140Z,7.90
2023-03-08T21:07:38.697Z,7.80
2023-03-08T21:10:08.074Z,7.80
2023-03-08T21:12:39.189Z,7.80
2023-03-08T21:15:09.773Z,7.80
2023-03-08T21:17:40.014Z,7.80
2023-03-08T21:20:11.327Z,7.80
2023-03-08T21:22:39.724Z,7.80
2023-03-08T21:25:08.936Z,8.20
2023-03-08T21:27:39.026Z,7.80
2023-03-08T21:30:09.894Z,8.00
2023-03-08T21:32:38.526Z,7.80
2023-03-08T21:35:08.086Z,7.80
2023-03-08T21:37:37.980Z,7.80
2023-03-08T21:40:08.256Z,7.80
2023-03-08T21:42:38.194Z,7.80
2023-03-08T21:45:08.021Z,7.80
2023-03-08T21:47:36.764Z,7.80
2023-03-08T21:50:06.805Z,7.80
2023-03-08T21:52:35.924Z,7.70
2023-03-08T21:55:05.636Z,7.70
2023-03-08T21:57:35.223Z,7.70
2023-03-08T22:00:06.873Z,7.80
2023-03-08T22:02:44.995Z,7.80
2023-03-08T22:05:14.334Z,7.70
2023-03-08T22:07:43.767Z,7.80
2023-03-08T22:10:14.503Z,7.70
2023-03-08T22:12:43.490Z,7.80
2023-03-08T22:15:15.918Z,7.80
2023-03-08T22:17:44.912Z,7.70
2023-03-08T22:20:14.019Z,7.70
2023-03-08T22:22:44.162Z,7.70
2023-03-08T22:25:13.982Z,7.80
2023-03-08T22:27:43.535Z,7.80
2023-03-08T22:30:15.682Z,7.70
2023-03-08T22:32:44.750Z,7.80
2023-03-08T22:35:15.480Z,7.70
2023-03-08T22:37:43.971Z,7.70
2023-03-08T22:40:14.162Z,7.70
2023-03-08T22:42:42.684Z,7.70
2023-03-08T22:45:14.157Z,7.80
2023-03-08T22:47:42.650Z,7.80
2023-03-08T22:50:13.338Z,7.80
2023-03-08T22:52:41.644Z,7.80
2023-03-08T22:55:11.420Z,8.00
2023-03-08T22:57:40.181Z,7.80
2023-03-08T23:00:14.459Z,7.70
2023-03-08T23:02:46.080Z,7.80
2023-03-08T23:05:16.386Z,7.80
2023-03-08T23:07:44.800Z,7.70
2023-03-08T23:10:15.547Z,7.70
2023-03-08T23:12:44.226Z,7.80
2023-03-08T23:15:13.388Z,7.80
2023-03-08T23:17:43.210Z,7.70
2023-03-08T23:20:13.652Z,7.80
2023-03-08T23:22:44.663Z,7.70
2023-03-08T23:25:13.550Z,7.80
2023-03-08T23:27:42.293Z,7.70
2023-03-08T23:30:15.913Z,7.80
2023-03-08T23:32:45.827Z,7.80
2023-03-08T23:35:14.236Z,7.80
2023-03-08T23:37:42.596Z,7.70
2023-03-08T23:40:14.269Z,7.90
2023-03-08T23:42:43.047Z,7.70
2023-03-08T23:45:11.963Z,7.70
2023-03-08T23:47:40.303Z,7.70
2023-03-08T23:50:11.927Z,7.90
2023-03-08T23:52:40.338Z,7.70
2023-03-08T23:55:09.635Z,7.70
2023-03-08T23:57:37.934Z,7.70
